Terminal Aerodrome Forecast
Issued by NWS

Home | Current Version | Previous Version | Text Only | Print | Product List | Glossary On
Versions: 1 2 3 4 5 6 7 8 9 10 11 12 13 14
245
FTUS43 KGRB 310520
TAFMTW
TAF
KMTW 310520Z 3106/0106 VRB03KT P6SM SCT200
     FM310800 04012G18KT P6SM SCT150
     FM311300 08007KT P6SM BKN150
     FM311800 11009KT P6SM SCT040 BKN080 PROB30 3118/3124 -SHRA
      BKN035
     FM010000 14010KT P6SM -SHRA BKN035 OVC070
     FM010400 17007KT 6SM -SHRA BKN035 OVC070=

USA.gov is the U.S. government's official web portal to all federal, state and local government web resources and services.